Text analysis for Sergi (petxi)

Return to profile of Sergi (petxi)

View texts not yet raced by Sergi (petxi)

Sorted by best race

Rank Text Best WPM Overall Difficulty Relative Speed Text Length Races Average WPM Last race
1. Yes. I consider myself a nerd. And this movie has uplifted m... 56.45 1.0200 0.1690 243 1 56.45 2017-10-19
2. There was no reason for me to stay in the real world any lon... 56.41 1.0663 0.1105 187 1 56.41 2017-10-19
3. There was never any more inception than there is now, nor an... 56.12 1.1551 0.0314 202 1 56.12 2017-10-19
4. I get to thinking of all the things you said. You gave a pro... 55.89 1.0486 0.1177 140 1 55.89 2017-10-19
5. In the town where I was born, lived a man who sailed to sea.... 55.70 1.0605 0.1203 229 1 55.70 2017-10-19
6. I refuse to give up! I refuse to get bored! I refuse to thro... 55.67 0.8947 0.2395 165 1 55.67 2019-07-24
7. One day beneath the lemon tree, my love and I did lie. A gir... 52.04 1.0413 0.0558 234 1 52.04 2017-10-19
8. Last night, I had a dream about you. In this dream I'm danci... 51.46 0.9650 0.0740 165 1 51.46 2017-10-19
9. Convection also plays a minor role because of the relative t... 51.08 0.9820 0.0906 274 1 51.08 2017-10-19
10. Have you ever experienced a time when no matter how hard you... 50.65 1.0280 0.0343 242 1 50.65 2017-10-20
11. To make you a vampire they have to suck your blood. And then... 50.01 1.0070 0.0268 163 1 50.01 2017-10-19
12. She seemed to know, to accept, to welcome her position, the ... 49.71 0.9731 0.0601 542 1 49.71 2017-10-19
13. The largest piece of our nutrition puzzle belongs to carbohy... 49.41 0.9325 0.0845 247 1 49.41 2017-10-19
14. It's just that I learned a while ago that the best way to ge... 48.50 1.0559 -0.0583 110 1 48.50 2017-10-19
15. Having endured the racial turmoil of the Civil Rights Moveme... 47.43 0.8629 0.1367 299 1 47.43 2017-10-19
16. On Hard your towers cost more than normal, the Bloons move f... 47.39 0.9032 0.0570 170 1 47.39 2019-07-25
17. Once you fall, Septimus repeated to himself, human nature is... 47.04 0.9366 0.0578 229 1 47.04 2017-10-22
18. Do you buy all these books retail or do you send away for li... 46.81 0.9464 0.0036 119 1 46.81 2017-10-19
19. That night of my sister's 18th birthday a lot of things happ... 46.45 1.0297 -0.0552 374 1 46.45 2017-10-19
20. It's a sad, sad situation, and it's getting more and more ab... 46.44 0.9286 0.0042 151 1 46.44 2017-10-19
21. I know that you weren't bored that day because there was a l... 46.01 0.9468 0.0175 276 1 46.01 2017-10-19
22. We sit silently and watch the world around us. This has take... 44.79 1.0296 -0.0842 437 1 44.79 2017-10-19
23. Many introverted hackers who are next to inarticulate in per... 44.45 0.9848 -0.0429 287 1 44.45 2017-10-19
24. And I forgot the next verse. Oh well, I guess it pays to reh... 44.25 0.8463 0.0426 137 1 44.25 2017-10-19
25. Mankind continues to fight, but it is a desperate fight to s... 43.90 0.9432 -0.0503 283 1 43.90 2017-10-19
26. For so long I thought that if my dad accepted me, I'd be hap... 43.44 0.9411 -0.0638 246 1 43.44 2017-10-19
27. Now Lina, you've been reading all those fan magazines again!... 43.22 0.9276 -0.0441 269 1 43.22 2017-10-19
28. It's a lie that every President, Democrat and Republican, ha... 41.21 0.8684 -0.0363 160 1 41.21 2017-10-19
29. The basis of the Aztecs' success in creating a great state a... 41.05 0.8541 0.0136 260 1 41.05 2017-10-19
30. Thirdly, however, these wars could now be waged with the new... 40.69 0.9820 -0.1276 267 1 40.69 2017-10-19
31. Jerry, if you think that by threatening me you can get me to... 29.48 1.0441 -0.4295 261 1 29.48 2017-10-19
32. Even the best-designed chair won't make up for bad posture. ... 22.79 1.0004 -0.5352 212 1 22.79 2017-10-19